createdAt,value
2018-12-31T00:01:44.072Z,102585.19
2018-12-31T00:04:14.344Z,102582.14
2018-12-31T00:06:45.013Z,102582.98
2018-12-31T00:09:15.755Z,102589.92
2018-12-31T00:11:46.046Z,102590.80
2018-12-31T00:14:16.629Z,102599.00
2018-12-31T00:16:47.111Z,102596.86
2018-12-31T00:19:17.529Z,102599.88
2018-12-31T00:21:48.226Z,102607.25
2018-12-31T00:24:18.684Z,102598.59
2018-12-31T00:26:49.032Z,102600.34
2018-12-31T00:29:19.460Z,102602.48
2018-12-31T00:31:50.239Z,102596.87
2018-12-31T00:34:20.477Z,102604.20
2018-12-31T00:36:51.052Z,102605.08
2018-12-31T00:39:21.647Z,102603.77
2018-12-31T00:41:52.570Z,102610.30
2018-12-31T00:44:22.947Z,102612.48
2018-12-31T00:46:53.176Z,102610.30
2018-12-31T00:49:23.586Z,102609.42
2018-12-31T00:51:54.358Z,102610.34
2018-12-31T00:54:25.027Z,102612.90
2018-12-31T00:56:55.936Z,102618.51
2018-12-31T00:59:26.295Z,102618.08
2018-12-31T01:01:56.589Z,102615.91
2018-12-31T01:04:27.158Z,102615.49
2018-12-31T01:06:57.431Z,102615.49
2018-12-31T01:09:27.740Z,102614.20
2018-12-31T01:11:58.418Z,102612.48
2018-12-31T01:14:28.702Z,102619.80
2018-12-31T01:16:59.419Z,102611.60
2018-12-31T01:19:30.021Z,102609.05
2018-12-31T01:22:00.225Z,102612.48
2018-12-31T01:24:30.516Z,102618.09
2018-12-31T01:27:01.501Z,102613.36
2018-12-31T01:29:31.917Z,102614.23
2018-12-31T01:32:02.298Z,102611.22
2018-12-31T01:34:32.875Z,102610.80
2018-12-31T01:37:03.208Z,102604.73
2018-12-31T01:39:33.467Z,102605.58
2018-12-31T01:42:04.115Z,102604.31
2018-12-31T01:44:34.502Z,102607.38
2018-12-31T01:47:05.243Z,102616.87
2018-12-31T01:49:35.730Z,102626.83
2018-12-31T01:52:06.144Z,102617.30
2018-12-31T01:54:36.548Z,102617.33
2018-12-31T01:57:06.989Z,102620.34
2018-12-31T01:59:37.351Z,102620.38
2018-12-31T02:02:08.099Z,102618.17
2018-12-31T02:04:38.527Z,102617.34
2018-12-31T02:07:09.005Z,102626.87
2018-12-31T02:09:39.283Z,102632.91
2018-12-31T02:12:09.790Z,102636.42
2018-12-31T02:14:40.228Z,102639.85
2018-12-31T02:17:11.175Z,102631.23
2018-12-31T02:19:42.009Z,102635.12
2018-12-31T02:22:12.557Z,102632.94
2018-12-31T02:24:42.854Z,102642.03
2018-12-31T02:27:13.488Z,102635.96
2018-12-31T02:29:43.908Z,102631.23
2018-12-31T02:32:14.502Z,102617.38
2018-12-31T02:34:44.832Z,102620.84
2018-12-31T02:37:15.495Z,102620.39
2018-12-31T02:39:45.894Z,102623.83
2018-12-31T02:42:16.176Z,102621.23
2018-12-31T02:44:46.438Z,102616.91
2018-12-31T02:47:17.155Z,102609.59
2018-12-31T02:49:47.673Z,102605.66
2018-12-31T02:52:18.125Z,102616.95
2018-12-31T02:54:48.423Z,102615.20
2018-12-31T02:57:18.902Z,102610.47
2018-12-31T02:59:49.692Z,102611.34
2018-12-31T03:02:20.114Z,102612.64
2018-12-31T03:04:50.459Z,102612.64
2018-12-31T03:07:20.839Z,102613.94
2018-12-31T03:09:51.492Z,102612.61
2018-12-31T03:12:21.924Z,102612.22
2018-12-31T03:14:52.233Z,102613.10
2018-12-31T03:17:22.612Z,102613.10
2018-12-31T03:19:52.956Z,102609.63
2018-12-31T03:22:23.240Z,102599.24
2018-12-31T03:24:53.769Z,102607.03
2018-12-31T03:27:24.067Z,102600.50
2018-12-31T03:29:54.449Z,102613.06
2018-12-31T03:32:24.870Z,102591.45
2018-12-31T03:34:55.325Z,102590.58
2018-12-31T03:37:26.041Z,102598.83
2018-12-31T03:39:56.376Z,102599.67
2018-12-31T03:42:26.854Z,102598.83
2018-12-31T03:44:57.795Z,102596.19
2018-12-31T03:47:28.629Z,102599.67
2018-12-31T03:49:58.926Z,102593.63
2018-12-31T03:52:29.315Z,102596.66
2018-12-31T03:54:59.771Z,102593.17
2018-12-31T03:57:30.307Z,102589.32
2018-12-31T04:00:00.760Z,102597.53
2018-12-31T04:02:31.302Z,102592.76
2018-12-31T04:05:01.645Z,102596.27
2018-12-31T04:07:32.134Z,102598.41
2018-12-31T04:10:02.899Z,102597.11
2018-12-31T04:12:33.198Z,102598.41
2018-12-31T04:15:03.655Z,102594.97
2018-12-31T04:17:34.100Z,102600.13
2018-12-31T04:20:05.052Z,102605.77
2018-12-31T04:22:35.257Z,102609.24
2018-12-31T04:25:05.699Z,102605.77
2018-12-31T04:27:36.067Z,102602.34
2018-12-31T04:30:06.667Z,102607.11
2018-12-31T04:32:36.962Z,102602.38
2018-12-31T04:35:07.786Z,102598.48
2018-12-31T04:37:38.224Z,102600.62
2018-12-31T04:40:08.676Z,102600.62
2018-12-31T04:42:38.892Z,102591.11
2018-12-31T04:45:09.548Z,102593.70
2018-12-31T04:47:40.780Z,102594.58
2018-12-31T04:50:11.298Z,102586.34
2018-12-31T04:52:41.560Z,102589.81
2018-12-31T04:55:12.224Z,102584.62
2018-12-31T04:57:42.866Z,102582.91
2018-12-31T05:00:13.316Z,102577.71
2018-12-31T05:02:43.699Z,102585.08
2018-12-31T05:05:14.079Z,102581.19
2018-12-31T05:07:44.490Z,102587.67
2018-12-31T05:10:14.855Z,102585.95
2018-12-31T05:12:45.046Z,102591.18
2018-12-31T05:15:15.748Z,102589.46
2018-12-31T05:17:46.300Z,102588.16
2018-12-31T05:20:16.500Z,102592.48
2018-12-31T05:22:46.837Z,102582.52
2018-12-31T05:25:17.171Z,102587.32
2018-12-31T05:27:47.361Z,102592.55
2018-12-31T05:30:17.848Z,102586.86
2018-12-31T05:32:48.107Z,102589.04
2018-12-31T05:35:18.559Z,102577.81
2018-12-31T05:37:48.830Z,102586.02
2018-12-31T05:40:20.398Z,102596.41
2018-12-31T05:42:50.687Z,102595.56
2018-12-31T05:45:21.473Z,102602.05
2018-12-31T05:47:51.793Z,102597.28
2018-12-31T05:50:22.171Z,102595.56
2018-12-31T05:52:52.492Z,102603.35
2018-12-31T05:55:23.066Z,102614.58
2018-12-31T05:57:53.397Z,102612.86
2018-12-31T06:00:23.824Z,102615.04
2018-12-31T06:02:54.185Z,102614.62
2018-12-31T06:05:24.633Z,102608.97
2018-12-31T06:07:54.913Z,102612.44
2018-12-31T06:10:25.242Z,102618.90
2018-12-31T06:12:55.604Z,102609.39
2018-12-31T06:15:25.891Z,102607.64
2018-12-31T06:17:56.171Z,102620.62
2018-12-31T06:20:26.447Z,102621.92
2018-12-31T06:22:56.853Z,102627.11
2018-12-31T06:25:27.626Z,102627.56
2018-12-31T06:27:58.054Z,102624.97
2018-12-31T06:30:28.819Z,102635.81
2018-12-31T06:32:59.060Z,102631.00
2018-12-31T06:35:29.482Z,102640.55
2018-12-31T06:37:59.783Z,102644.44
2018-12-31T06:40:30.231Z,102648.80
2018-12-31T06:43:00.857Z,102645.78
2018-12-31T06:45:31.179Z,102648.80
2018-12-31T06:48:01.477Z,102657.01
2018-12-31T06:50:31.973Z,102657.46
2018-12-31T06:53:02.741Z,102654.44
2018-12-31T06:55:33.032Z,102659.22
2018-12-31T06:58:03.471Z,102665.29
2018-12-31T07:00:33.851Z,102665.29
2018-12-31T07:03:04.182Z,102672.66
2018-12-31T07:05:34.500Z,102675.26
2018-12-31T07:08:06.440Z,102683.55
2018-12-31T07:10:36.853Z,102677.02
2018-12-31T07:13:07.147Z,102670.06
2018-12-31T07:15:37.353Z,102672.66
2018-12-31T07:18:07.594Z,102673.54
2018-12-31T07:20:38.175Z,102673.08
2018-12-31T07:23:08.694Z,102674.37
2018-12-31T07:25:39.105Z,102676.94
2018-12-31T07:28:10.090Z,102684.27
2018-12-31T07:30:40.310Z,102682.97
2018-12-31T07:33:10.645Z,102685.61
2018-12-31T07:35:41.060Z,102684.73
2018-12-31T07:38:11.882Z,102673.08
2018-12-31T07:40:44.399Z,102671.33
2018-12-31T07:43:15.093Z,102670.02
2018-12-31T07:45:45.447Z,102673.53
2018-12-31T07:48:15.769Z,102678.73
2018-12-31T07:50:46.190Z,102680.91
2018-12-31T07:53:16.506Z,102686.56
2018-12-31T07:55:47.230Z,102690.87
2018-12-31T07:58:17.746Z,102697.41
2018-12-31T08:00:51.356Z,102705.66
2018-12-31T08:03:21.788Z,102701.77
2018-12-31T08:05:52.637Z,102707.84
2018-12-31T08:08:23.152Z,102706.11
2018-12-31T08:10:54.584Z,102711.31
2018-12-31T08:13:24.920Z,102709.13
2018-12-31T08:15:56.276Z,102722.12
2018-12-31T08:18:27.136Z,102714.33
2018-12-31T08:20:57.431Z,102722.58
2018-12-31T08:23:28.282Z,102722.61
2018-12-31T08:25:58.692Z,102729.11
2018-12-31T08:28:29.127Z,102727.81
2018-12-31T08:30:59.425Z,102732.59
2018-12-31T08:33:29.770Z,102732.59
2018-12-31T08:36:00.071Z,102737.78
2018-12-31T08:38:30.464Z,102730.45
2018-12-31T08:41:00.984Z,102733.47
2018-12-31T08:43:31.481Z,102732.16
2018-12-31T08:46:03.308Z,102737.78
2018-12-31T08:48:34.303Z,102736.06
2018-12-31T08:51:04.732Z,102739.13
2018-12-31T08:53:35.036Z,102736.52
2018-12-31T08:56:05.596Z,102737.40
2018-12-31T08:58:36.546Z,102741.75
2018-12-31T09:01:11.181Z,102737.41
2018-12-31T09:03:41.430Z,102742.56
2018-12-31T09:06:11.828Z,102746.91
2018-12-31T09:08:42.260Z,102735.64
2018-12-31T09:11:15.133Z,102744.31
2018-12-31T09:13:47.981Z,102740.88
2018-12-31T09:16:18.643Z,102746.95
2018-12-31T09:18:49.567Z,102744.35
2018-12-31T09:21:20.450Z,102746.53
2018-12-31T09:23:51.030Z,102751.27
2018-12-31T09:26:21.599Z,102740.91
2018-12-31T09:28:52.647Z,102742.17
2018-12-31T09:31:23.467Z,102740.88
2018-12-31T09:33:54.115Z,102739.61
2018-12-31T09:36:24.675Z,102741.75
2018-12-31T09:38:55.044Z,102740.03
2018-12-31T09:41:26.064Z,102743.05
2018-12-31T09:43:58.176Z,102740.45
2018-12-31T09:46:30.491Z,102741.33
2018-12-31T09:49:01.046Z,102742.63
2018-12-31T09:51:31.763Z,102742.63
2018-12-31T09:54:02.352Z,102749.63
2018-12-31T09:56:33.071Z,102747.90
2018-12-31T09:59:07.469Z,102750.98
2018-12-31T10:01:38.422Z,102753.62
2018-12-31T10:04:09.127Z,102755.77
2018-12-31T10:06:40.075Z,102752.75
2018-12-31T10:09:18.665Z,102749.69
2018-12-31T10:11:49.996Z,102750.57
2018-12-31T10:14:21.277Z,102752.71
2018-12-31T10:16:52.494Z,102754.89
2018-12-31T10:19:23.230Z,102755.31
2018-12-31T10:21:54.056Z,102751.87
2018-12-31T10:24:24.728Z,102756.19
2018-12-31T10:26:57.345Z,102759.24
2018-12-31T10:29:35.801Z,102754.92
2018-12-31T10:32:00.892Z,102756.67
2018-12-31T10:34:32.203Z,102753.69
2018-12-31T10:37:03.539Z,102752.78
2018-12-31T10:39:33.910Z,102758.44
2018-12-31T10:42:04.394Z,102761.91
2018-12-31T10:44:35.093Z,102758.43
2018-12-31T10:47:05.775Z,102758.40
2018-12-31T10:49:36.229Z,102760.22
2018-12-31T10:52:08.935Z,102757.20
2018-12-31T10:54:39.494Z,102763.30
2018-12-31T10:57:10.133Z,102750.76
2018-12-31T10:59:43.938Z,102754.69
2018-12-31T11:02:16.489Z,102753.38
2018-12-31T11:04:49.873Z,102756.02
2018-12-31T11:07:20.845Z,102752.11
2018-12-31T11:09:52.140Z,102750.36
2018-12-31T11:12:22.911Z,102745.16
2018-12-31T11:14:53.722Z,102740.06
2018-12-31T11:17:25.075Z,102733.03
2018-12-31T11:19:55.539Z,102737.78
2018-12-31T11:22:26.176Z,102730.41
2018-12-31T11:24:57.073Z,102735.13
2018-12-31T11:27:27.740Z,102734.22
2018-12-31T11:29:58.437Z,102738.13
2018-12-31T11:32:28.811Z,102729.90
2018-12-31T11:34:59.223Z,102738.16
2018-12-31T11:37:34.612Z,102730.33
2018-12-31T11:40:03.948Z,102729.02
2018-12-31T11:42:34.269Z,102716.42
2018-12-31T11:45:04.986Z,102719.90
2018-12-31T11:47:35.441Z,102714.27
2018-12-31T11:50:06.346Z,102710.77
2018-12-31T11:52:37.009Z,102711.64
2018-12-31T11:55:07.541Z,102704.30
2018-12-31T11:57:38.147Z,102703.00
2018-12-31T12:00:10.285Z,102700.43
2018-12-31T12:02:40.689Z,102696.53
2018-12-31T12:05:11.099Z,102695.23
2018-12-31T12:07:41.547Z,102700.45
2018-12-31T12:10:11.884Z,102690.48
2018-12-31T12:12:42.367Z,102691.75
2018-12-31T12:15:13.187Z,102696.98
2018-12-31T12:17:43.548Z,102692.23
2018-12-31T12:20:14.237Z,102686.63
2018-12-31T12:22:45.528Z,102692.28
2018-12-31T12:25:16.303Z,102686.63
2018-12-31T12:27:49.737Z,102687.50
2018-12-31T12:30:20.209Z,102680.58
2018-12-31T12:32:52.745Z,102681.03
2018-12-31T12:35:23.350Z,102688.83
2018-12-31T12:37:53.742Z,102695.33
2018-12-31T12:40:24.167Z,102696.61
2018-12-31T12:42:54.839Z,102690.95
2018-12-31T12:45:25.233Z,102681.85
2018-12-31T12:47:56.020Z,102690.93
2018-12-31T12:50:26.726Z,102685.70
2018-12-31T12:52:57.966Z,102691.36
2018-12-31T12:55:28.637Z,102691.80
2018-12-31T12:57:59.057Z,102684.85
2018-12-31T13:00:29.745Z,102687.45
2018-12-31T13:03:00.287Z,102688.75
2018-12-31T13:05:31.487Z,102690.50
2018-12-31T13:08:02.482Z,102695.28
2018-12-31T13:10:33.673Z,102694.42
2018-12-31T13:13:04.617Z,102690.09
2018-12-31T13:15:35.287Z,102683.13
2018-12-31T13:18:05.879Z,102686.58
2018-12-31T13:20:36.464Z,102675.76
2018-12-31T13:23:07.287Z,102684.44
2018-12-31T13:25:37.975Z,102682.70
2018-12-31T13:28:08.786Z,102678.78
2018-12-31T13:30:39.613Z,102682.25
2018-12-31T13:33:12.047Z,102684.88
2018-12-31T13:35:42.577Z,102678.83
2018-12-31T13:38:13.352Z,102680.98
2018-12-31T13:40:44.101Z,102682.28
2018-12-31T13:43:15.111Z,102684.00
2018-12-31T13:45:46.056Z,102677.94
2018-12-31T13:48:16.926Z,102676.20
2018-12-31T13:50:47.943Z,102676.18
2018-12-31T13:53:20.366Z,102677.92
2018-12-31T13:55:52.195Z,102677.92
2018-12-31T13:58:25.564Z,102675.36
2018-12-31T14:00:56.155Z,102677.51
2018-12-31T14:03:27.097Z,102679.23
2018-12-31T14:05:57.947Z,102677.50
2018-12-31T14:08:29.176Z,102686.16
2018-12-31T14:11:00.356Z,102676.63
2018-12-31T14:13:30.928Z,102676.18
2018-12-31T14:16:01.525Z,102672.31
2018-12-31T14:18:32.423Z,102684.01
2018-12-31T14:21:03.476Z,102673.16
2018-12-31T14:23:34.549Z,102685.73
2018-12-31T14:26:05.168Z,102688.75
2018-12-31T14:28:36.113Z,102688.33
2018-12-31T14:31:07.077Z,102684.44
2018-12-31T14:33:38.759Z,102691.80
2018-12-31T14:36:09.244Z,102685.31
2018-12-31T14:38:42.780Z,102693.98
2018-12-31T14:41:13.066Z,102702.20
2018-12-31T14:43:43.488Z,102703.53
2018-12-31T14:46:14.860Z,102693.95
2018-12-31T14:48:45.504Z,102701.75
2018-12-31T14:51:16.687Z,102696.55
2018-12-31T14:53:47.196Z,102693.11
2018-12-31T14:56:17.689Z,102693.13
2018-12-31T14:58:48.363Z,102701.36
2018-12-31T15:01:18.779Z,102707.83
2018-12-31T15:03:50.000Z,102704.80
2018-12-31T15:06:20.497Z,102704.78
2018-12-31T15:08:53.176Z,102707.80
2018-12-31T15:11:23.665Z,102703.48
2018-12-31T15:13:54.341Z,102703.91
2018-12-31T15:16:28.052Z,102708.23
2018-12-31T15:18:58.491Z,102709.08
2018-12-31T15:21:28.923Z,102706.93
2018-12-31T15:24:26.507Z,102709.08
2018-12-31T15:27:17.861Z,102710.80
2018-12-31T15:29:50.454Z,102715.58
2018-12-31T15:32:20.914Z,102714.70
2018-12-31T15:34:52.529Z,102723.41
2018-12-31T15:37:23.458Z,102720.77
2018-12-31T15:39:55.572Z,102728.53
2018-12-31T15:42:27.996Z,102724.22
2018-12-31T15:44:59.066Z,102720.73
2018-12-31T15:47:29.579Z,102719.86
2018-12-31T15:50:00.306Z,102715.09
2018-12-31T15:52:30.696Z,102719.80
2018-12-31T15:55:01.595Z,102716.30
2018-12-31T15:57:32.040Z,102718.95
2018-12-31T16:00:02.587Z,102718.08
2018-12-31T16:02:33.528Z,102721.52
2018-12-31T16:05:04.336Z,102727.14
2018-12-31T16:07:45.634Z,102724.05
2018-12-31T16:10:13.015Z,102724.05
2018-12-31T16:12:43.796Z,102728.45
2018-12-31T16:15:14.502Z,102726.66
2018-12-31T16:17:45.565Z,102724.52
2018-12-31T16:20:16.445Z,102725.03
2018-12-31T16:22:47.011Z,102723.25
2018-12-31T16:25:17.663Z,102715.45
2018-12-31T16:27:48.274Z,102721.07
2018-12-31T16:30:19.094Z,102717.20
2018-12-31T16:32:49.764Z,102721.07
2018-12-31T16:35:22.035Z,102719.31
2018-12-31T16:37:54.282Z,102722.75
2018-12-31T16:40:32.984Z,102717.98
2018-12-31T16:43:03.639Z,102724.48
2018-12-31T16:45:34.753Z,102723.14
2018-12-31T16:48:05.631Z,102721.84
2018-12-31T16:50:36.378Z,102723.56
2018-12-31T16:53:07.219Z,102725.74
2018-12-31T16:55:37.764Z,102727.05
2018-12-31T16:58:08.016Z,102725.74
2018-12-31T17:00:38.933Z,102722.72
2018-12-31T17:03:09.411Z,102722.27
2018-12-31T17:05:40.151Z,102721.42
2018-12-31T17:08:10.836Z,102722.69
2018-12-31T17:10:41.203Z,102725.32
2018-12-31T17:13:13.701Z,102731.82
2018-12-31T17:15:45.653Z,102720.55
2018-12-31T17:18:16.138Z,102717.07
2018-12-31T17:20:47.093Z,102721.84
2018-12-31T17:23:17.729Z,102720.55
2018-12-31T17:25:48.379Z,102715.80
2018-12-31T17:28:18.899Z,102707.98
2018-12-31T17:30:49.495Z,102714.54
2018-12-31T17:33:20.090Z,102716.65
2018-12-31T17:35:50.366Z,102716.65
2018-12-31T17:38:22.522Z,102718.83
2018-12-31T17:41:01.921Z,102717.98
2018-12-31T17:43:32.452Z,102715.38
2018-12-31T17:46:03.025Z,102715.38
2018-12-31T17:48:36.547Z,102714.05
2018-12-31T17:51:07.592Z,102710.58
2018-12-31T17:53:38.498Z,102707.98
2018-12-31T17:56:09.348Z,102709.24
2018-12-31T17:58:40.996Z,102704.05
2018-12-31T18:01:16.940Z,102707.48
2018-12-31T18:03:47.898Z,102708.36
2018-12-31T18:06:18.503Z,102706.64
2018-12-31T18:08:54.774Z,102707.06
2018-12-31T18:11:28.629Z,102717.91
2018-12-31T18:14:05.567Z,102709.66
2018-12-31T18:16:36.653Z,102723.08
2018-12-31T18:19:07.731Z,102720.90
2018-12-31T18:21:38.845Z,102712.23
2018-12-31T18:24:18.359Z,102718.72
2018-12-31T18:26:52.398Z,102713.98
2018-12-31T18:29:29.936Z,102729.11
2018-12-31T18:32:11.833Z,102726.94
2018-12-31T18:34:42.492Z,102727.77
2018-12-31T18:37:16.748Z,102726.48
2018-12-31T18:39:49.254Z,102719.10
2018-12-31T18:42:25.817Z,102723.42
2018-12-31T18:45:09.661Z,102722.55
2018-12-31T18:47:42.172Z,102727.28
2018-12-31T18:50:14.126Z,102730.30
2018-12-31T18:52:48.877Z,102728.12
2018-12-31T18:55:24.894Z,102733.31
2018-12-31T18:57:57.947Z,102730.22
2018-12-31T19:00:29.994Z,102729.38
2018-12-31T19:03:18.841Z,102729.80
2018-12-31T19:06:13.186Z,102732.39
2018-12-31T19:09:05.709Z,102733.69
2018-12-31T19:11:41.176Z,102734.11
2018-12-31T19:14:12.096Z,102732.39
2018-12-31T19:16:42.818Z,102738.46
2018-12-31T19:19:25.302Z,102738.84
2018-12-31T19:21:57.346Z,102733.23
2018-12-31T19:24:51.076Z,102730.17
2018-12-31T19:27:23.758Z,102725.82
2018-12-31T19:29:57.734Z,102729.72
2018-12-31T19:32:28.904Z,102725.81
2018-12-31T19:35:07.110Z,102721.05
2018-12-31T19:37:40.551Z,102727.98
2018-12-31T19:40:21.347Z,102727.49
2018-12-31T19:43:00.444Z,102728.78
2018-12-31T19:45:33.509Z,102719.70
2018-12-31T19:48:04.625Z,102719.24
2018-12-31T19:50:35.839Z,102725.31
2018-12-31T19:53:06.424Z,102717.94
2018-12-31T19:55:37.228Z,102716.69
2018-12-31T19:58:07.580Z,102716.64
2018-12-31T20:00:37.999Z,102711.95
2018-12-31T20:03:08.499Z,102714.87
2018-12-31T20:05:39.427Z,102706.67
2018-12-31T20:08:09.899Z,102707.52
2018-12-31T20:10:42.308Z,102698.84
2018-12-31T20:13:12.846Z,102696.20
2018-12-31T20:15:48.552Z,102694.95
2018-12-31T20:18:16.029Z,102693.19
2018-12-31T20:20:46.773Z,102685.40
2018-12-31T20:23:18.160Z,102677.16
2018-12-31T20:25:48.758Z,102680.63
2018-12-31T20:28:19.540Z,102675.48
2018-12-31T20:30:50.517Z,102663.30
2018-12-31T20:33:21.482Z,102661.13
2018-12-31T20:35:59.156Z,102657.69
2018-12-31T20:38:30.291Z,102661.55
2018-12-31T20:41:13.773Z,102658.10
2018-12-31T20:44:00.361Z,102656.77
2018-12-31T20:46:34.656Z,102661.54
2018-12-31T20:49:08.905Z,102663.30
2018-12-31T20:51:45.085Z,102658.94
2018-12-31T20:54:19.129Z,102658.95
2018-12-31T20:57:07.138Z,102665.47
2018-12-31T20:59:38.071Z,102665.01
2018-12-31T21:02:10.357Z,102661.50
2018-12-31T21:04:44.559Z,102660.66
2018-12-31T21:07:16.567Z,102651.99
2018-12-31T21:09:47.521Z,102652.38
2018-12-31T21:12:18.477Z,102660.62
2018-12-31T21:14:49.088Z,102658.44
2018-12-31T21:17:19.953Z,102648.09
2018-12-31T21:19:51.130Z,102646.80
2018-12-31T21:22:21.712Z,102644.16
2018-12-31T21:24:52.650Z,102646.30
2018-12-31T21:27:24.146Z,102644.16
2018-12-31T21:29:56.779Z,102633.74
2018-12-31T21:32:28.276Z,102637.25
2018-12-31T21:35:07.180Z,102634.63
2018-12-31T21:37:37.751Z,102640.69
2018-12-31T21:40:10.577Z,102635.08
2018-12-31T21:42:41.222Z,102631.11
2018-12-31T21:45:11.740Z,102635.88
2018-12-31T21:47:42.579Z,102633.70
2018-12-31T21:50:16.609Z,102638.52
2018-12-31T21:52:47.813Z,102640.23
2018-12-31T21:55:24.605Z,102636.30
2018-12-31T21:57:56.077Z,102639.81
2018-12-31T22:00:26.704Z,102638.52
2018-12-31T22:03:04.501Z,102635.45
2018-12-31T22:05:35.318Z,102635.04
2018-12-31T22:08:05.925Z,102641.56
2018-12-31T22:10:36.919Z,102638.09
2018-12-31T22:13:07.865Z,102641.11
2018-12-31T22:15:38.398Z,102641.11
2018-12-31T22:18:09.169Z,102645.84
2018-12-31T22:20:39.770Z,102635.92
2018-12-31T22:23:10.676Z,102635.04
2018-12-31T22:25:41.413Z,102630.73
2018-12-31T22:28:11.897Z,102641.16
2018-12-31T22:30:42.299Z,102641.10
2018-12-31T22:33:13.026Z,102647.59
2018-12-31T22:35:43.889Z,102645.38
2018-12-31T22:38:15.882Z,102643.20
2018-12-31T22:40:47.987Z,102638.38
2018-12-31T22:43:18.442Z,102643.11
2018-12-31T22:45:49.332Z,102640.94
2018-12-31T22:48:19.676Z,102640.00
2018-12-31T22:50:50.281Z,102637.37
2018-12-31T22:53:21.658Z,102635.12
2018-12-31T22:55:52.693Z,102630.78
2018-12-31T22:58:23.911Z,102635.55
2018-12-31T23:00:54.601Z,102630.31
2018-12-31T23:03:25.199Z,102630.31
2018-12-31T23:05:56.030Z,102625.59
2018-12-31T23:08:26.666Z,102624.24
2018-12-31T23:10:57.342Z,102632.03
2018-12-31T23:13:32.575Z,102626.84
2018-12-31T23:16:03.191Z,102623.36
2018-12-31T23:18:34.028Z,102619.05
2018-12-31T23:21:04.563Z,102618.69
2018-12-31T23:23:35.108Z,102616.93
2018-12-31T23:26:05.583Z,102607.39
2018-12-31T23:28:36.129Z,102599.61
2018-12-31T23:31:06.597Z,102600.45
2018-12-31T23:33:37.295Z,102594.84
2018-12-31T23:36:07.754Z,102596.18
2018-12-31T23:38:38.928Z,102603.96
2018-12-31T23:41:09.687Z,102598.27
2018-12-31T23:43:40.217Z,102594.80
2018-12-31T23:46:10.885Z,102600.45
2018-12-31T23:48:41.343Z,102606.09
2018-12-31T23:51:11.938Z,102605.67
2018-12-31T23:53:42.207Z,102602.67
2018-12-31T23:56:12.815Z,102600.49
2018-12-31T23:58:43.504Z,102600.91
